createdAt,value
2023-02-08T00:00:31.863Z,-2.34
2023-02-08T00:05:33.159Z,-2.44
2023-02-08T00:10:34.415Z,-2.45
2023-02-08T00:15:35.667Z,-2.58
2023-02-08T00:20:36.876Z,-2.61
2023-02-08T00:25:38.122Z,-2.47
2023-02-08T00:30:39.712Z,-2.62
2023-02-08T00:35:42.234Z,-2.94
2023-02-08T00:40:43.624Z,-2.95
2023-02-08T00:45:44.832Z,-3.11
2023-02-08T00:50:46.057Z,-3.01
2023-02-08T00:55:47.269Z,-3.15
2023-02-08T01:00:48.705Z,-3.09
2023-02-08T01:05:49.982Z,-3.25
2023-02-08T01:10:51.271Z,-3.17
2023-02-08T01:15:52.594Z,-3.25
2023-02-08T01:20:53.889Z,-3.27
2023-02-08T01:25:55.150Z,-3.38
2023-02-08T01:30:56.540Z,-3.33
2023-02-08T01:35:57.849Z,-3.42
2023-02-08T01:40:59.102Z,-3.37
2023-02-08T01:46:00.355Z,-3.18
2023-02-08T01:51:01.624Z,-3.61
2023-02-08T01:56:02.863Z,-3.36
2023-02-08T02:01:04.116Z,-3.38
2023-02-08T02:06:05.542Z,-3.45
2023-02-08T02:11:06.830Z,-3.43
2023-02-08T02:16:08.107Z,-3.62
2023-02-08T02:21:09.367Z,-3.77
2023-02-08T02:26:10.576Z,-3.67
2023-02-08T02:31:12.103Z,-3.65
2023-02-08T02:36:13.334Z,-3.92
2023-02-08T02:41:14.570Z,-4.06
2023-02-08T02:46:15.848Z,-4.20
2023-02-08T02:51:17.071Z,-4.08
2023-02-08T02:56:18.308Z,-4.13
2023-02-08T03:01:19.600Z,-4.04
2023-02-08T03:06:20.917Z,-4.11
2023-02-08T03:11:22.186Z,-4.07
2023-02-08T03:16:23.425Z,-4.02
2023-02-08T03:21:24.720Z,-4.13
2023-02-08T03:26:25.916Z,-4.11
2023-02-08T03:31:27.246Z,-4.26
2023-02-08T03:36:28.751Z,-4.50
2023-02-08T03:41:30.022Z,-4.61
2023-02-08T03:46:31.254Z,-4.58
2023-02-08T03:51:32.534Z,-4.60
2023-02-08T03:56:33.773Z,-4.31
2023-02-08T04:01:36.760Z,-4.31
2023-02-08T04:06:38.049Z,-4.38
2023-02-08T04:11:39.269Z,-4.26
2023-02-08T04:16:40.525Z,-4.23
2023-02-08T04:21:41.775Z,-4.34
2023-02-08T04:26:43.017Z,-4.46
2023-02-08T04:31:44.475Z,-4.29
2023-02-08T04:36:45.807Z,-4.68
2023-02-08T04:41:47.031Z,-4.63
2023-02-08T04:46:48.288Z,-4.67
2023-02-08T04:51:49.544Z,-4.61
2023-02-08T04:56:50.805Z,-4.56
2023-02-08T05:01:52.070Z,-4.48
2023-02-08T05:06:53.319Z,-4.48
2023-02-08T05:11:54.717Z,-4.49
2023-02-08T05:16:56.000Z,-4.68
2023-02-08T05:21:57.675Z,-4.52
2023-02-08T05:26:58.888Z,-4.56
2023-02-08T05:32:00.323Z,-4.62
2023-02-08T05:37:01.644Z,-4.63
2023-02-08T05:42:02.877Z,-4.67
2023-02-08T05:47:04.208Z,-4.60
2023-02-08T05:52:05.456Z,-4.84
2023-02-08T05:57:06.701Z,-5.16
2023-02-08T06:02:07.973Z,-5.03
2023-02-08T06:07:09.233Z,-5.07
2023-02-08T06:12:10.456Z,-4.97
2023-02-08T06:17:11.749Z,-5.00
2023-02-08T06:22:13.054Z,-5.09
2023-02-08T06:27:14.330Z,-5.04
2023-02-08T06:32:15.774Z,-5.02
2023-02-08T06:37:17.103Z,-4.94
2023-02-08T06:42:18.369Z,-5.05
2023-02-08T06:47:19.678Z,-4.78
2023-02-08T06:52:20.975Z,-4.76
2023-02-08T06:57:22.260Z,-4.79
2023-02-08T07:02:23.618Z,-4.96
2023-02-08T07:07:24.878Z,-4.75
2023-02-08T07:12:26.139Z,-4.77
2023-02-08T07:17:27.414Z,-4.68
2023-02-08T07:22:28.697Z,-4.61
2023-02-08T07:27:29.934Z,-4.46
2023-02-08T07:32:33.692Z,-4.31
2023-02-08T07:37:35.999Z,-4.31
2023-02-08T07:42:37.285Z,-4.15
2023-02-08T07:47:38.503Z,-2.52
2023-02-08T07:52:41.179Z,-0.77
2023-02-08T07:57:42.451Z,-1.86
2023-02-08T08:02:43.768Z,-2.17
2023-02-08T08:07:45.015Z,-2.54
2023-02-08T08:12:46.484Z,-2.78
2023-02-08T08:17:47.735Z,-2.69
2023-02-08T08:22:49.043Z,-2.83
2023-02-08T08:27:50.397Z,-2.86
2023-02-08T08:32:51.668Z,-2.89
2023-02-08T08:37:52.971Z,-2.99
2023-02-08T08:42:54.241Z,-3.04
2023-02-08T08:47:55.556Z,-2.60
2023-02-08T08:52:56.861Z,-2.93
2023-02-08T08:57:58.164Z,-2.67
2023-02-08T09:02:59.481Z,-3.10
2023-02-08T09:08:01.432Z,-3.05
2023-02-08T09:13:02.885Z,-2.59
2023-02-08T09:18:04.709Z,-2.34
2023-02-08T09:23:06.044Z,-2.25
2023-02-08T09:28:07.502Z,-2.19
2023-02-08T09:33:08.769Z,-1.94
2023-02-08T09:38:12.991Z,-1.88
2023-02-08T09:43:14.376Z,-1.51
2023-02-08T09:48:15.791Z,-1.47
2023-02-08T09:53:17.021Z,-1.19
2023-02-08T09:58:18.292Z,-1.10
2023-02-08T10:03:19.550Z,-0.88
2023-02-08T10:08:20.880Z,-0.81
2023-02-08T10:13:25.672Z,-0.51
2023-02-08T10:18:34.463Z,-0.49
2023-02-08T10:23:35.702Z,-0.44
2023-02-08T10:28:37.688Z,-0.18
2023-02-08T10:33:38.964Z,-0.06
2023-02-08T10:38:46.466Z,-0.30
2023-02-08T10:43:48.485Z,0.18
2023-02-08T10:48:49.868Z,0.56
2023-02-08T10:53:51.175Z,0.42
2023-02-08T10:58:52.586Z,0.37
2023-02-08T11:03:53.868Z,0.59
2023-02-08T11:08:55.301Z,0.91
2023-02-08T11:13:56.503Z,1.32
2023-02-08T11:18:57.726Z,1.30
2023-02-08T11:23:58.966Z,1.62
2023-02-08T11:29:00.216Z,2.18
2023-02-08T11:34:01.549Z,2.78
2023-02-08T11:39:02.848Z,2.87
2023-02-08T11:44:04.201Z,2.84
2023-02-08T11:49:05.448Z,3.04
2023-02-08T11:54:06.845Z,3.13
2023-02-08T11:59:08.085Z,2.80
2023-02-08T12:04:09.377Z,2.76
2023-02-08T12:09:10.662Z,3.05
2023-02-08T12:14:11.930Z,3.02
2023-02-08T12:19:13.250Z,3.70
2023-02-08T12:24:14.540Z,3.94
2023-02-08T12:29:15.920Z,4.23
2023-02-08T12:34:17.189Z,4.43
2023-02-08T12:39:37.225Z,4.18
2023-02-08T12:44:38.475Z,4.72
2023-02-08T12:49:39.754Z,4.84
2023-02-08T12:54:40.980Z,4.59
2023-02-08T12:59:42.233Z,5.04
2023-02-08T13:04:43.535Z,4.90
2023-02-08T13:09:44.740Z,4.77
2023-02-08T13:14:46.039Z,4.70
2023-02-08T13:19:58.149Z,5.02
2023-02-08T13:25:07.431Z,4.87
2023-02-08T13:30:09.409Z,5.25
2023-02-08T13:35:10.620Z,5.53
2023-02-08T13:40:12.084Z,5.28
2023-02-08T13:45:13.338Z,5.49
2023-02-08T13:50:14.607Z,5.79
2023-02-08T13:55:15.916Z,6.22
2023-02-08T14:00:17.135Z,6.02
2023-02-08T14:05:18.368Z,5.72
2023-02-08T14:10:19.582Z,6.32
2023-02-08T14:15:20.807Z,6.40
2023-02-08T14:20:22.162Z,5.82
2023-02-08T14:25:24.436Z,5.22
2023-02-08T14:30:25.662Z,5.05
2023-02-08T14:35:26.902Z,4.47
2023-02-08T14:40:28.158Z,4.12
2023-02-08T14:45:29.477Z,3.62
2023-02-08T14:50:30.908Z,3.44
2023-02-08T14:55:32.118Z,3.53
2023-02-08T15:00:33.590Z,3.90
2023-02-08T15:05:34.895Z,3.94
2023-02-08T15:10:36.259Z,4.45
2023-02-08T15:15:37.526Z,4.51
2023-02-08T15:20:38.739Z,4.22
2023-02-08T15:25:40.183Z,4.01
2023-02-08T15:30:42.795Z,3.31
2023-02-08T15:35:44.344Z,3.00
2023-02-08T15:40:45.967Z,2.68
2023-02-08T15:45:47.346Z,2.72
2023-02-08T15:50:48.617Z,2.86
2023-02-08T15:55:49.987Z,3.11
2023-02-08T16:00:51.299Z,3.06
2023-02-08T16:05:54.145Z,2.65
2023-02-08T16:10:55.454Z,3.01
2023-02-08T16:16:03.890Z,2.83
2023-02-08T16:21:09.573Z,2.71
2023-02-08T16:26:10.890Z,2.41
2023-02-08T16:31:12.247Z,2.42
2023-02-08T16:36:13.536Z,2.23
2023-02-08T16:41:16.064Z,1.95
2023-02-08T16:46:17.485Z,1.94
2023-02-08T16:51:18.831Z,2.08
2023-02-08T16:56:20.622Z,2.02
2023-02-08T17:01:21.925Z,1.90
2023-02-08T17:06:30.620Z,1.90
2023-02-08T17:11:31.883Z,2.01
2023-02-08T17:16:33.271Z,1.73
2023-02-08T17:21:34.557Z,1.79
2023-02-08T17:26:36.695Z,1.80
2023-02-08T17:31:37.953Z,1.94
2023-02-08T17:36:41.158Z,1.44
2023-02-08T17:41:43.842Z,1.64
2023-02-08T17:46:45.193Z,1.60
2023-02-08T17:51:46.589Z,1.66
2023-02-08T17:56:47.817Z,1.45
2023-02-08T18:01:49.071Z,1.56
2023-02-08T18:06:50.315Z,1.13
2023-02-08T18:11:51.581Z,1.37
2023-02-08T18:16:52.887Z,1.35
2023-02-08T18:21:54.151Z,1.24
2023-02-08T18:26:55.837Z,1.15
2023-02-08T18:31:57.531Z,1.33
2023-02-08T18:36:58.907Z,1.13
2023-02-08T18:42:00.166Z,1.27
2023-02-08T18:47:01.398Z,1.09
2023-02-08T18:52:02.752Z,1.09
2023-02-08T18:57:06.098Z,0.97
2023-02-08T19:02:07.563Z,0.93
2023-02-08T19:07:08.945Z,0.86
2023-02-08T19:12:10.515Z,0.78
2023-02-08T19:17:14.420Z,0.61
2023-02-08T19:22:16.541Z,0.81
2023-02-08T19:27:17.826Z,0.81
2023-02-08T19:32:19.218Z,0.49
2023-02-08T19:37:20.624Z,-0.01
2023-02-08T19:42:21.993Z,0.27
2023-02-08T19:47:32.329Z,0.21
2023-02-08T19:52:43.358Z,0.33
2023-02-08T19:57:44.681Z,0.22
2023-02-08T20:02:46.029Z,0.20
2023-02-08T20:07:48.323Z,0.11
2023-02-08T20:12:49.586Z,0.22
2023-02-08T20:17:50.878Z,0.11
2023-02-08T20:22:52.186Z,-0.09
2023-02-08T20:27:54.251Z,-0.25
2023-02-08T20:32:55.545Z,-0.32
2023-02-08T20:37:56.784Z,-0.32
2023-02-08T20:42:58.027Z,-0.40
2023-02-08T20:47:59.850Z,-0.53
2023-02-08T20:53:01.269Z,-0.45
2023-02-08T20:58:02.597Z,-0.48
2023-02-08T21:03:03.984Z,-0.56
2023-02-08T21:08:05.461Z,-0.66
2023-02-08T21:13:06.963Z,-0.74
2023-02-08T21:18:08.323Z,-0.75
2023-02-08T21:23:09.590Z,-0.85
2023-02-08T21:28:11.209Z,-1.11
2023-02-08T21:33:12.596Z,-1.28
2023-02-08T21:38:13.816Z,-1.34
2023-02-08T21:43:15.017Z,-1.34
2023-02-08T21:48:16.232Z,-1.26
2023-02-08T21:53:52.786Z,-1.42
2023-02-08T21:58:53.995Z,-1.74
2023-02-08T22:03:55.254Z,-1.77
2023-02-08T22:08:56.644Z,-1.79
2023-02-08T22:13:57.967Z,-1.55
2023-02-08T22:18:59.255Z,-1.67
2023-02-08T22:24:00.523Z,-1.69
2023-02-08T22:29:01.794Z,-1.79
2023-02-08T22:34:03.146Z,-1.66
2023-02-08T22:39:04.486Z,-1.40
2023-02-08T22:44:05.791Z,-1.36
2023-02-08T22:49:08.606Z,-1.33
2023-02-08T22:54:09.885Z,-1.49
2023-02-08T22:59:11.280Z,-1.22
2023-02-08T23:04:12.564Z,-1.24
2023-02-08T23:09:13.895Z,-1.55
2023-02-08T23:14:15.139Z,-1.69
2023-02-08T23:19:17.586Z,-1.47
2023-02-08T23:24:18.842Z,-1.84
2023-02-08T23:29:20.136Z,-1.61
2023-02-08T23:34:21.378Z,-1.53
2023-02-08T23:39:22.670Z,-1.33
2023-02-08T23:44:25.042Z,-1.37
2023-02-08T23:49:26.268Z,-1.03
2023-02-08T23:54:27.521Z,-0.89
2023-02-08T23:59:28.885Z,-1.20
